Pagrindinis puslapis
METAR-TAF:

METAR-TAF

Oro uostai :

Princesės Julianos tarptautinis oro uostas

Sint Martenas, Nyderlandų Antilai

platuma: 18-03N, ilguma: 063-07W, Aukštis: 4 m

Dabartinis oras

Ataskaita buvo paskelbta 22 minutes, ne 11:00 UTC
Vėjas 9 kt iš Rytų, svyruoja nuo Rytų/Šiaurės Rytų ir Rytų/Pietryčių
Temperatūra 28°C
Drėgmė 70%
Slėgis 1018 hPa
Matomumas 10 km arba daugiau
Mažai debesys ne aukštis 1800 ft

METAR: TNCM 041100Z 09009KT 060V120 9999 FEW018 28/22 Q1018 NOSIG

Laikas: 07:22 (11:22 UTC)

Prognozė

Ataskaita buvo paskelbta 6 valandos ir 1 minutes, ne 05:21 UTC
Prognozė galioja nuo 04 metu 06 UTC su 05 metu 06 UTC
Vėjas 14 kt iš Rytų
Matomumas: 10 km
Išsisklaidę debesys ne aukštis 1800 ft

TAF: TNCM 040521Z 0406/0506 08014KT P6SM SCT018

Orai ataskaitas ir orų prognozės (METAR, TAF).

turimą stotys yra geltonos ir raudonos taškus žemėlapyje.

Perkelti pele per norėdami pamatyti stoties vardą.

Tada spustelėkite, norėdami matyti oro stebėjimo ir prognozės.

Norėdami pakeisti žemėlapį: spustelėkite ant žalios mygtukų su juodo kryžiaus žemyn,; žalią mygtuką su brūkšneliu, jei norite nutolinti; arba žalių rodyklių gretimoms žemėlapius.


METAR-TAF: